sensor_id;sensor_type;location;lat;lon;timestamp;pressure;altitude;pressure_sealevel;temperature
29549;BMP280;16487;53.094;8.800;2024-01-07T16:09:56;102797.25;;;-1.95
29549;BMP280;16487;53.094;8.800;2024-01-07T16:12:24;102807.59;;;-2.03
29549;BMP280;16487;53.094;8.800;2024-01-07T16:14:51;102806.66;;;-2.02
29549;BMP280;16487;53.094;8.800;2024-01-07T16:17:18;102814.94;;;-2.07
29549;BMP280;16487;53.094;8.800;2024-01-07T16:19:45;102820.63;;;-2.11
29549;BMP280;16487;53.094;8.800;2024-01-07T16:22:14;102824.22;;;-2.12
29549;BMP280;16487;53.094;8.800;2024-01-07T16:24:41;102831.31;;;-2.13
29549;BMP280;16487;53.094;8.800;2024-01-07T16:27:09;102825.69;;;-2.20
29549;BMP280;16487;53.094;8.800;2024-01-07T16:29:36;102821.41;;;-2.21
29549;BMP280;16487;53.094;8.800;2024-01-07T16:32:12;102837.41;;;-2.33
29549;BMP280;16487;53.094;8.800;2024-01-07T16:34:39;102845.03;;;-2.30
29549;BMP280;16487;53.094;8.800;2024-01-07T16:37:06;102849.50;;;-2.31
29549;BMP280;16487;53.094;8.800;2024-01-07T16:39:35;102849.97;;;-2.37
29549;BMP280;16487;53.094;8.800;2024-01-07T16:42:03;102859.09;;;-2.41
29549;BMP280;16487;53.094;8.800;2024-01-07T16:44:30;102869.28;;;-2.48
29549;BMP280;16487;53.094;8.800;2024-01-07T16:46:57;102867.50;;;-2.47
29549;BMP280;16487;53.094;8.800;2024-01-07T16:49:24;102875.06;;;-2.43
29549;BMP280;16487;53.094;8.800;2024-01-07T16:51:54;102866.53;;;-2.46
29549;BMP280;16487;53.094;8.800;2024-01-07T16:54:21;102879.97;;;-2.38
29549;BMP280;16487;53.094;8.800;2024-01-07T16:56:50;102878.66;;;-2.44
29549;BMP280;16487;53.094;8.800;2024-01-07T16:59:17;102878.19;;;-2.49
29549;BMP280;16487;53.094;8.800;2024-01-07T17:01:44;102888.75;;;-2.49
29549;BMP280;16487;53.094;8.800;2024-01-07T17:04:13;102889.06;;;-2.42
29549;BMP280;16487;53.094;8.800;2024-01-07T17:06:42;102897.59;;;-2.39
29549;BMP280;16487;53.094;8.800;2024-01-07T17:09:09;102896.53;;;-2.25
29549;BMP280;16487;53.094;8.800;2024-01-07T17:11:36;102900.34;;;-2.17
29549;BMP280;16487;53.094;8.800;2024-01-07T17:14:04;102903.44;;;-2.12
29549;BMP280;16487;53.094;8.800;2024-01-07T17:16:31;102918.59;;;-2.14
29549;BMP280;16487;53.094;8.800;2024-01-07T17:18:58;102924.91;;;-2.06
29549;BMP280;16487;53.094;8.800;2024-01-07T17:21:26;102918.16;;;-1.98
29549;BMP280;16487;53.094;8.800;2024-01-07T17:23:53;102923.59;;;-2.00
29549;BMP280;16487;53.094;8.800;2024-01-07T17:26:21;102926.81;;;-1.96
29549;BMP280;16487;53.094;8.800;2024-01-07T17:28:49;102924.31;;;-1.98
29549;BMP280;16487;53.094;8.800;2024-01-07T17:31:17;102927.63;;;-1.96
29549;BMP280;16487;53.094;8.800;2024-01-07T17:33:44;102922.94;;;-1.92
29549;BMP280;16487;53.094;8.800;2024-01-07T17:36:12;102929.56;;;-1.86
29549;BMP280;16487;53.094;8.800;2024-01-07T17:38:39;102926.94;;;-1.86
29549;BMP280;16487;53.094;8.800;2024-01-07T17:41:06;102941.34;;;-1.91
29549;BMP280;16487;53.094;8.800;2024-01-07T17:43:33;102931.38;;;-1.87
29549;BMP280;16487;53.094;8.800;2024-01-07T17:46:00;102938.59;;;-1.89
29549;BMP280;16487;53.094;8.800;2024-01-07T17:48:29;102939.78;;;-1.93
29549;BMP280;16487;53.094;8.800;2024-01-07T17:50:56;102933.78;;;-1.95
29549;BMP280;16487;53.094;8.800;2024-01-07T17:53:23;102956.25;;;-2.01
29549;BMP280;16487;53.094;8.800;2024-01-07T17:55:50;102956.09;;;-1.99
29549;BMP280;16487;53.094;8.800;2024-01-07T17:58:17;102940.75;;;-1.94
29549;BMP280;16487;53.094;8.800;2024-01-07T18:00:44;102950.22;;;-2.03
29549;BMP280;16487;53.094;8.800;2024-01-07T18:03:12;102943.91;;;-2.23
29549;BMP280;16487;53.094;8.800;2024-01-07T18:05:41;102928.34;;;-2.26
29549;BMP280;16487;53.094;8.800;2024-01-07T18:08:08;102936.25;;;-2.26
29549;BMP280;16487;53.094;8.800;2024-01-07T18:10:36;102947.03;;;-2.29
29549;BMP280;16487;53.094;8.800;2024-01-07T18:13:03;102934.81;;;-2.30
29549;BMP280;16487;53.094;8.800;2024-01-07T18:15:30;102939.72;;;-2.37
29549;BMP280;16487;53.094;8.800;2024-01-07T18:17:57;102937.69;;;-2.45
29549;BMP280;16487;53.094;8.800;2024-01-07T18:20:25;102946.81;;;-2.49
29549;BMP280;16487;53.094;8.800;2024-01-07T18:22:53;102955.69;;;-2.50
29549;BMP280;16487;53.094;8.800;2024-01-07T18:25:20;102958.91;;;-2.58
29549;BMP280;16487;53.094;8.800;2024-01-07T18:27:47;102948.34;;;-2.58
29549;BMP280;16487;53.094;8.800;2024-01-07T18:30:15;102947.16;;;-2.65
29549;BMP280;16487;53.094;8.800;2024-01-07T18:32:42;102948.09;;;-2.66
29549;BMP280;16487;53.094;8.800;2024-01-07T18:35:09;102947.47;;;-2.70
29549;BMP280;16487;53.094;8.800;2024-01-07T18:37:36;102949.28;;;-2.70
29549;BMP280;16487;53.094;8.800;2024-01-07T18:40:06;102941.47;;;-2.72
29549;BMP280;16487;53.094;8.800;2024-01-07T18:42:33;102943.16;;;-2.71
29549;BMP280;16487;53.094;8.800;2024-01-07T18:45:00;102942.91;;;-2.79
29549;BMP280;16487;53.094;8.800;2024-01-07T18:47:28;102943.78;;;-2.78
29549;BMP280;16487;53.094;8.800;2024-01-07T18:49:55;102956.97;;;-2.78
29549;BMP280;16487;53.094;8.800;2024-01-07T18:52:22;102948.56;;;-2.72
29549;BMP280;16487;53.094;8.800;2024-01-07T18:54:50;102945.47;;;-2.66
29549;BMP280;16487;53.094;8.800;2024-01-07T18:57:18;102955.78;;;-2.63
29549;BMP280;16487;53.094;8.800;2024-01-07T18:59:45;102956.53;;;-2.61
29549;BMP280;16487;53.094;8.800;2024-01-07T19:02:12;102956.41;;;-2.59
29549;BMP280;16487;53.094;8.800;2024-01-07T19:04:39;102956.16;;;-2.45
29549;BMP280;16487;53.094;8.800;2024-01-07T19:07:07;102965.75;;;-2.44
29549;BMP280;16487;53.094;8.800;2024-01-07T19:09:34;102963.47;;;-2.37
29549;BMP280;16487;53.094;8.800;2024-01-07T19:12:02;102963.22;;;-2.34
29549;BMP280;16487;53.094;8.800;2024-01-07T19:14:30;102991.06;;;-2.41
29549;BMP280;16487;53.094;8.800;2024-01-07T19:17:00;102980.38;;;-2.40
29549;BMP280;16487;53.094;8.800;2024-01-07T19:19:27;102984.59;;;-2.37
29549;BMP280;16487;53.094;8.800;2024-01-07T19:21:54;102986.38;;;-2.38
29549;BMP280;16487;53.094;8.800;2024-01-07T19:24:21;102988.56;;;-2.31
29549;BMP280;16487;53.094;8.800;2024-01-07T19:26:48;102983.88;;;-2.28
29549;BMP280;16487;53.094;8.800;2024-01-07T19:29:15;102978.13;;;-2.22
29549;BMP280;16487;53.094;8.800;2024-01-07T19:31:44;102987.00;;;-2.23
29549;BMP280;16487;53.094;8.800;2024-01-07T19:34:11;103004.53;;;-2.22
29549;BMP280;16487;53.094;8.800;2024-01-07T19:36:39;103008.59;;;-2.17
29549;BMP280;16487;53.094;8.800;2024-01-07T19:39:06;103007.66;;;-2.16
29549;BMP280;16487;53.094;8.800;2024-01-07T19:41:36;103006.91;;;-2.18
29549;BMP280;16487;53.094;8.800;2024-01-07T19:44:03;103012.78;;;-2.15
29549;BMP280;16487;53.094;8.800;2024-01-07T19:46:31;103015.94;;;-2.10
29549;BMP280;16487;53.094;8.800;2024-01-07T19:49:02;103020.03;;;-2.17
29549;BMP280;16487;53.094;8.800;2024-01-07T19:51:29;103021.09;;;-2.08
29549;BMP280;16487;53.094;8.800;2024-01-07T19:53:56;103024.56;;;-2.08
29549;BMP280;16487;53.094;8.800;2024-01-07T19:56:24;103045.09;;;-2.00
29549;BMP280;16487;53.094;8.800;2024-01-07T19:58:51;103041.72;;;-2.02
29549;BMP280;16487;53.094;8.800;2024-01-07T20:01:19;103050.38;;;-2.00
29549;BMP280;16487;53.094;8.800;2024-01-07T20:03:46;103058.66;;;-1.93
29549;BMP280;16487;53.094;8.800;2024-01-07T20:06:15;103062.00;;;-1.91
29549;BMP280;16487;53.094;8.800;2024-01-07T20:08:43;103057.34;;;-1.87
29549;BMP280;16487;53.094;8.800;2024-01-07T20:11:16;103066.09;;;-1.98
29549;BMP280;16487;53.094;8.800;2024-01-07T20:13:43;103054.69;;;-1.99
29549;BMP280;16487;53.094;8.800;2024-01-07T20:16:10;103063.09;;;-1.94
29549;BMP280;16487;53.094;8.800;2024-01-07T20:18:37;103050.50;;;-2.01
29549;BMP280;16487;53.094;8.800;2024-01-07T20:21:05;103057.22;;;-2.09
29549;BMP280;16487;53.094;8.800;2024-01-07T20:23:33;103039.09;;;-2.25
29549;BMP280;16487;53.094;8.800;2024-01-07T20:26:00;103038.94;;;-2.34
29549;BMP280;16487;53.094;8.800;2024-01-07T20:28:29;103042.16;;;-2.42
29549;BMP280;16487;53.094;8.800;2024-01-07T20:30:57;103031.25;;;-2.49
29549;BMP280;16487;53.094;8.800;2024-01-07T20:33:24;103029.56;;;-2.50
29549;BMP280;16487;53.094;8.800;2024-01-07T20:35:51;103043.84;;;-2.53
29549;BMP280;16487;53.094;8.800;2024-01-07T20:38:18;103041.91;;;-2.62
29549;BMP280;16487;53.094;8.800;2024-01-07T20:40:47;103039.28;;;-2.62
29549;BMP280;16487;53.094;8.800;2024-01-07T20:43:14;103037.00;;;-2.67
29549;BMP280;16487;53.094;8.800;2024-01-07T20:45:41;103024.63;;;-2.66
29549;BMP280;16487;53.094;8.800;2024-01-07T20:48:08;103018.72;;;-2.70
29549;BMP280;16487;53.094;8.800;2024-01-07T20:50:36;103026.16;;;-2.75
29549;BMP280;16487;53.094;8.800;2024-01-07T20:53:03;103010.41;;;-2.76
29549;BMP280;16487;53.094;8.800;2024-01-07T20:55:30;103012.34;;;-2.78
29549;BMP280;16487;53.094;8.800;2024-01-07T20:57:59;103014.03;;;-2.77
29549;BMP280;16487;53.094;8.800;2024-01-07T21:00:26;103012.09;;;-2.75
29549;BMP280;16487;53.094;8.800;2024-01-07T21:02:53;103018.09;;;-2.73
29549;BMP280;16487;53.094;8.800;2024-01-07T21:05:20;103029.91;;;-2.66
29549;BMP280;16487;53.094;8.800;2024-01-07T21:07:47;103043.22;;;-2.68
29549;BMP280;16487;53.094;8.800;2024-01-07T21:10:15;103047.19;;;-2.62
29549;BMP280;16487;53.094;8.800;2024-01-07T21:12:42;103053.66;;;-2.66
29549;BMP280;16487;53.094;8.800;2024-01-07T21:15:11;103047.41;;;-2.65
29549;BMP280;16487;53.094;8.800;2024-01-07T21:17:38;103041.97;;;-2.75
29549;BMP280;16487;53.094;8.800;2024-01-07T21:20:07;103035.25;;;-2.79
29549;BMP280;16487;53.094;8.800;2024-01-07T21:22:35;103039.72;;;-2.68
29549;BMP280;16487;53.094;8.800;2024-01-07T21:25:04;103047.66;;;-2.57
29549;BMP280;16487;53.094;8.800;2024-01-07T21:27:31;103048.16;;;-2.52
29549;BMP280;16487;53.094;8.800;2024-01-07T21:29:59;103050.44;;;-2.58
29549;BMP280;16487;53.094;8.800;2024-01-07T21:32:28;103055.47;;;-2.55
29549;BMP280;16487;53.094;8.800;2024-01-07T21:34:55;103059.19;;;-2.58
29549;BMP280;16487;53.094;8.800;2024-01-07T21:37:22;103055.59;;;-2.57
29549;BMP280;16487;53.094;8.800;2024-01-07T21:39:50;103061.25;;;-2.50
29549;BMP280;16487;53.094;8.800;2024-01-07T21:42:17;103048.31;;;-2.42
29549;BMP280;16487;53.094;8.800;2024-01-07T21:44:44;103053.81;;;-2.45
29549;BMP280;16487;53.094;8.800;2024-01-07T21:47:11;103057.41;;;-2.46
29549;BMP280;16487;53.094;8.800;2024-01-07T21:49:44;103057.06;;;-2.41
29549;BMP280;16487;53.094;8.800;2024-01-07T21:52:11;103051.41;;;-2.37
29549;BMP280;16487;53.094;8.800;2024-01-07T21:54:39;103045.31;;;-2.37
29549;BMP280;16487;53.094;8.800;2024-01-07T21:57:06;103055.38;;;-2.42
29549;BMP280;16487;53.094;8.800;2024-01-07T21:59:33;103064.59;;;-2.48
29549;BMP280;16487;53.094;8.800;2024-01-07T22:02:01;103065.34;;;-2.34
29549;BMP280;16487;53.094;8.800;2024-01-07T22:04:28;103067.59;;;-2.41
29549;BMP280;16487;53.094;8.800;2024-01-07T22:06:56;103057.19;;;-2.43
29549;BMP280;16487;53.094;8.800;2024-01-07T22:09:23;103055.13;;;-2.39
29549;BMP280;16487;53.094;8.800;2024-01-07T22:11:51;103055.38;;;-2.42
29549;BMP280;16487;53.094;8.800;2024-01-07T22:14:18;103058.84;;;-2.42
29549;BMP280;16487;53.094;8.800;2024-01-07T22:16:45;103053.69;;;-2.43
29549;BMP280;16487;53.094;8.800;2024-01-07T22:19:12;103047.69;;;-2.45
29549;BMP280;16487;53.094;8.800;2024-01-07T22:21:39;103046.63;;;-2.43
29549;BMP280;16487;53.094;8.800;2024-01-07T22:24:08;103039.91;;;-2.36
29549;BMP280;16487;53.094;8.800;2024-01-07T22:26:35;103047.94;;;-2.37
29549;BMP280;16487;53.094;8.800;2024-01-07T22:29:02;103043.63;;;-2.38
29549;BMP280;16487;53.094;8.800;2024-01-07T22:31:30;103040.66;;;-2.33
29549;BMP280;16487;53.094;8.800;2024-01-07T22:33:57;103038.34;;;-2.38
29549;BMP280;16487;53.094;8.800;2024-01-07T22:36:24;103035.44;;;-2.35
29549;BMP280;16487;53.094;8.800;2024-01-07T22:38:51;103050.47;;;-2.24
29549;BMP280;16487;53.094;8.800;2024-01-07T22:41:19;103043.78;;;-2.28
29549;BMP280;16487;53.094;8.800;2024-01-07T22:43:49;103037.13;;;-2.34
29549;BMP280;16487;53.094;8.800;2024-01-07T22:46:16;103042.53;;;-2.36
29549;BMP280;16487;53.094;8.800;2024-01-07T22:48:43;103042.53;;;-2.36
29549;BMP280;16487;53.094;8.800;2024-01-07T22:51:10;103035.56;;;-2.37
29549;BMP280;16487;53.094;8.800;2024-01-07T22:53:38;103043.72;;;-2.40
29549;BMP280;16487;53.094;8.800;2024-01-07T22:56:05;103045.19;;;-2.36
29549;BMP280;16487;53.094;8.800;2024-01-07T22:58:34;103046.41;;;-2.28
29549;BMP280;16487;53.094;8.800;2024-01-07T23:01:01;103039.31;;;-2.28
29549;BMP280;16487;53.094;8.800;2024-01-07T23:03:28;103027.78;;;-2.38
29549;BMP280;16487;53.094;8.800;2024-01-07T23:05:55;103026.69;;;-2.36
29549;BMP280;16487;53.094;8.800;2024-01-07T23:08:23;103025.66;;;-2.33
29549;BMP280;16487;53.094;8.800;2024-01-07T23:10:50;103029.47;;;-2.26
29549;BMP280;16487;53.094;8.800;2024-01-07T23:13:17;103031.25;;;-2.38
29549;BMP280;16487;53.094;8.800;2024-01-07T23:15:45;103031.97;;;-2.36
29549;BMP280;16487;53.094;8.800;2024-01-07T23:18:12;103032.97;;;-2.25
29549;BMP280;16487;53.094;8.800;2024-01-07T23:20:40;103027.34;;;-2.32
29549;BMP280;16487;53.094;8.800;2024-01-07T23:23:07;103017.13;;;-2.25
29549;BMP280;16487;53.094;8.800;2024-01-07T23:25:34;103026.63;;;-2.23
29549;BMP280;16487;53.094;8.800;2024-01-07T23:28:01;103025.16;;;-2.27
29549;BMP280;16487;53.094;8.800;2024-01-07T23:30:28;103026.25;;;-2.18
29549;BMP280;16487;53.094;8.800;2024-01-07T23:32:57;103022.66;;;-2.28
29549;BMP280;16487;53.094;8.800;2024-01-07T23:35:24;103028.53;;;-2.25
29549;BMP280;16487;53.094;8.800;2024-01-07T23:37:52;103019.28;;;-2.19
29549;BMP280;16487;53.094;8.800;2024-01-07T23:40:19;103027.22;;;-2.19
29549;BMP280;16487;53.094;8.800;2024-01-07T23:42:46;103022.28;;;-2.12
29549;BMP280;16487;53.094;8.800;2024-01-07T23:45:13;103021.44;;;-2.13
29549;BMP280;16487;53.094;8.800;2024-01-07T23:47:40;103017.97;;;-2.13
29549;BMP280;16487;53.094;8.800;2024-01-07T23:50:09;103017.00;;;-2.12
29549;BMP280;16487;53.094;8.800;2024-01-07T23:52:39;103026.38;;;-2.08
29549;BMP280;16487;53.094;8.800;2024-01-07T23:55:07;103029.72;;;-2.06
29549;BMP280;16487;53.094;8.800;2024-01-07T23:57:34;103019.88;;;-2.04
